CLT TRACON Summary / KCLT TAF
CLT TRACON Summary:
High pressure will begin to weaken as a cold front approaches from the north on Friday. Expect VFR conditions under patchy upper-level cirrus. Surface winds will be south at 5-7kts. Flight hazards in the TRACON airspace: None expected.

Updated: 8/31/2016 8:20 PM
CLT Terminal Aerodrome Forecast:

FTUS80 KCLT 312336 RRB
KCLT 312333Z 0100/0124 16007KT P6SM FEW050 SCT200
     FM010600 21003KT P6SM FEW060 SCT200
     FM011500 25006KT P6SM VCSH SCT050 BKN200
     FM011800 21007KT P6SM VCSH BKN050 PROB30 0120/0124 4SM -TSRA
      OVC035CB
CLT TRACON Area Remark:
NONE.
Convective Gate Forecast / Collaborative Convective Forecast Product / Vertical Wind Profile
Convective Gate Forecast
-->
AIRMETs & SIGMETS/ Southeast Radar loop / Satellite Image (click on image to enlarge)

Southeast Radar Loop

 



USA.gov is the U.S. government's official web portal to all federal, state and local government web resources and services.